Time;durP1;ratioP1;P1;durP2;ratioP2;P2;SDS_P1;SDS_P2;PMS_P1;PMS_P2;Temp;Humidity;BMP_temperature;BMP_pressure;BME280_temperature;BME280_humidity;BME280_pressure;Samples;Min_cycle;Max_cycle;Signal;HPM_P1;HPM_P2
2023/03/18 00:00:33;;;;;;;4.43;3.80;;;;;;;;;;4985076;28;20076;-81
2023/03/18 00:03:00;;;;;;;4.60;3.20;;;;;;;;;;4994513;28;20070;-81
2023/03/18 00:05:27;;;;;;;7.72;3.80;;;;;;;;;;4990581;28;20062;-81
2023/03/18 00:07:55;;;;;;;3.88;3.45;;;;;;;;;;4992126;28;20061;-81
2023/03/18 00:10:23;;;;;;;4.07;3.53;;;;;;;;;;4984812;28;20143;-81
2023/03/18 00:12:52;;;;;;;3.08;2.83;;;;;;;;;;4994312;28;20058;-81
2023/03/18 00:15:20;;;;;;;3.75;3.30;;;;;;;;;;4993168;28;20120;-81
2023/03/18 00:17:47;;;;;;;5.50;3.55;;;;;;;;;;4994707;28;20046;-81
2023/03/18 00:20:17;;;;;;;5.60;4.03;;;;;;;;;;4976776;28;20085;-81
2023/03/18 00:22:45;;;;;;;5.07;3.85;;;;;;;;;;4989101;28;20054;-81
2023/03/18 00:25:13;;;;;;;4.13;3.10;;;;;;;;;;4974410;28;20488;-81
2023/03/18 00:27:41;;;;;;;4.93;3.78;;;;;;;;;;4992197;28;20057;-81
2023/03/18 00:30:17;;;;;;;5.55;3.65;;;;;;;;;;4955364;28;20082;-82
2023/03/18 00:32:45;;;;;;;4.30;3.45;;;;;;;;;;4993103;28;20073;-79
2023/03/18 00:35:14;;;;;;;4.18;3.78;;;;;;;;;;4974469;28;20073;-80
2023/03/18 00:37:42;;;;;;;4.07;3.22;;;;;;;;;;4993149;28;20046;-79
2023/03/18 00:40:16;;;;;;;2.60;2.40;;;;;;;;;;4994566;28;20061;-82
2023/03/18 00:42:49;;;;;;;5.63;3.60;;;;;;;;;;4998720;28;20058;-82
2023/03/18 00:45:17;;;;;;;5.28;3.65;;;;;;;;;;4978798;28;20057;-81
2023/03/18 00:47:47;;;;;;;4.43;3.60;;;;;;;;;;4964977;28;20447;-81
2023/03/18 00:50:14;;;;;;;4.90;3.40;;;;;;;;;;4971037;28;20084;-80
2023/03/18 00:52:42;;;;;;;6.22;3.47;;;;;;;;;;4990088;28;20520;-80
2023/03/18 00:55:10;;;;;;;3.90;3.45;;;;;;;;;;4989729;28;20210;-80
2023/03/18 00:57:38;;;;;;;5.30;3.58;;;;;;;;;;4970474;28;20393;-81
2023/03/18 01:00:07;;;;;;;3.33;3.03;;;;;;;;;;4969840;28;20051;-80
2023/03/18 01:02:34;;;;;;;6.97;3.50;;;;;;;;;;4983174;28;20512;-80
2023/03/18 01:05:02;;;;;;;3.53;2.97;;;;;;;;;;4970807;28;20043;-80
2023/03/18 01:07:30;;;;;;;4.15;3.65;;;;;;;;;;4982707;28;20227;-80
2023/03/18 01:09:57;;;;;;;3.63;3.05;;;;;;;;;;4968593;28;20101;-80
2023/03/18 01:12:25;;;;;;;3.78;3.35;;;;;;;;;;4980503;28;20571;-81
2023/03/18 01:14:52;;;;;;;3.35;2.80;;;;;;;;;;4971313;28;20097;-81
2023/03/18 01:17:20;;;;;;;7.40;6.80;;;;;;;;;;4972267;28;20058;-80
2023/03/18 01:19:47;;;;;;;4.13;3.13;;;;;;;;;;4988898;28;20077;-80
2023/03/18 01:22:16;;;;;;;3.25;2.85;;;;;;;;;;4990613;28;20053;-80
2023/03/18 01:24:47;;;;;;;4.25;3.33;;;;;;;;;;4975811;28;20108;-81
2023/03/18 01:27:17;;;;;;;6.28;3.97;;;;;;;;;;4975201;28;20358;-80
2023/03/18 01:29:46;;;;;;;3.63;3.33;;;;;;;;;;4977251;28;20054;-80
2023/03/18 01:32:20;;;;;;;5.88;3.20;;;;;;;;;;4985092;28;20110;-80
2023/03/18 01:34:48;;;;;;;6.68;3.35;;;;;;;;;;4988179;28;20110;-81
2023/03/18 01:37:16;;;;;;;4.68;3.47;;;;;;;;;;4986488;28;20060;-80
2023/03/18 01:39:47;;;;;;;3.50;3.20;;;;;;;;;;4982047;28;20425;-81
2023/03/18 01:42:21;;;;;;;4.88;3.22;;;;;;;;;;4973264;28;20051;-80
2023/03/18 01:44:49;;;;;;;4.75;3.35;;;;;;;;;;4973840;28;20073;-81
2023/03/18 01:47:17;;;;;;;4.30;3.10;;;;;;;;;;4973322;28;20057;-80
2023/03/18 01:49:51;;;;;;;5.72;3.33;;;;;;;;;;4974503;28;20133;-80
2023/03/18 01:52:22;;;;;;;6.65;3.17;;;;;;;;;;4989053;28;20489;-80
2023/03/18 01:54:55;;;;;;;4.25;3.45;;;;;;;;;;4967712;28;20047;-80
2023/03/18 01:57:22;;;;;;;6.30;3.47;;;;;;;;;;4967825;28;20126;-80
2023/03/18 01:59:51;;;;;;;3.95;3.45;;;;;;;;;;4969166;28;20165;-81
2023/03/18 02:02:19;;;;;;;4.57;3.58;;;;;;;;;;4973587;28;20054;-80
2023/03/18 02:04:49;;;;;;;5.20;3.70;;;;;;;;;;4976214;28;20352;-80
2023/03/18 02:07:25;;;;;;;4.95;3.53;;;;;;;;;;4988825;28;20054;-81
2023/03/18 02:09:54;;;;;;;4.07;3.22;;;;;;;;;;4967158;28;20055;-80
2023/03/18 02:12:26;;;;;;;4.15;3.60;;;;;;;;;;4988388;28;20121;-81
2023/03/18 02:14:57;;;;;;;5.80;3.40;;;;;;;;;;4968920;28;20042;-80
2023/03/18 02:17:26;;;;;;;4.05;3.45;;;;;;;;;;4989838;28;20523;-81
2023/03/18 02:20:09;;;;;;;4.38;3.70;;;;;;;;;;4990305;28;20428;-80
2023/03/18 02:23:00;;;;;;;3.53;2.95;;;;;;;;;;4971362;28;20034;-81
2023/03/18 02:25:36;;;;;;;3.65;3.25;;;;;;;;;;4969560;28;20043;-81
2023/03/18 02:28:09;;;;;;;4.03;3.60;;;;;;;;;;4971653;28;20078;-80
2023/03/18 02:30:38;;;;;;;4.63;3.80;;;;;;;;;;4961639;28;20427;-80
2023/03/18 02:33:08;;;;;;;5.15;3.85;;;;;;;;;;4971895;28;20050;-80
2023/03/18 02:35:35;;;;;;;8.00;3.78;;;;;;;;;;4962817;28;20048;-80
2023/03/18 02:38:03;;;;;;;4.72;3.65;;;;;;;;;;4968764;28;20050;-80
2023/03/18 02:40:36;;;;;;;3.97;3.50;;;;;;;;;;4985817;28;20054;-81
2023/03/18 02:43:20;;;;;;;3.78;3.38;;;;;;;;;;4971038;28;20054;-81
2023/03/18 02:46:12;;;;;;;4.22;3.83;;;;;;;;;;4971518;28;20189;-81
2023/03/18 02:48:43;;;;;;;5.10;3.75;;;;;;;;;;4963355;28;20077;-81
2023/03/18 02:51:13;;;;;;;5.50;4.22;;;;;;;;;;4964194;28;20046;-81
2023/03/18 02:53:40;;;;;;;4.13;3.10;;;;;;;;;;4984576;28;20058;-80
2023/03/18 02:56:08;;;;;;;3.88;3.42;;;;;;;;;;4974024;28;20054;-80
2023/03/18 02:58:36;;;;;;;3.65;3.35;;;;;;;;;;4986683;28;20092;-83
2023/03/18 03:01:05;;;;;;;3.25;2.95;;;;;;;;;;4967162;28;20052;-81
2023/03/18 03:03:33;;;;;;;5.28;3.28;;;;;;;;;;4970166;28;20038;-80
2023/03/18 03:06:02;;;;;;;5.05;3.72;;;;;;;;;;4981272;28;20046;-80
2023/03/18 03:08:30;;;;;;;4.90;3.80;;;;;;;;;;4980885;28;20054;-80
2023/03/18 03:10:57;;;;;;;5.25;3.53;;;;;;;;;;4985015;28;20046;-81
2023/03/18 03:13:26;;;;;;;4.47;3.90;;;;;;;;;;4977978;28;20114;-81
2023/03/18 03:15:54;;;;;;;8.45;4.13;;;;;;;;;;4967318;28;20063;-80
2023/03/18 03:18:22;;;;;;;6.00;3.85;;;;;;;;;;4983517;28;20313;-81
2023/03/18 03:20:51;;;;;;;5.60;4.65;;;;;;;;;;4969713;28;20515;-80
2023/03/18 03:23:19;;;;;;;5.13;4.03;;;;;;;;;;4984474;28;20042;-80
2023/03/18 03:25:48;;;;;;;5.82;4.47;;;;;;;;;;4968724;28;20496;-80
2023/03/18 03:28:15;;;;;;;6.35;4.35;;;;;;;;;;4969554;28;20129;-80
2023/03/18 03:30:44;;;;;;;6.03;4.30;;;;;;;;;;4970611;28;20069;-81
2023/03/18 03:33:12;;;;;;;8.32;4.18;;;;;;;;;;4969606;28;20366;-80
2023/03/18 03:35:40;;;;;;;8.07;4.60;;;;;;;;;;4956717;28;20070;-80
2023/03/18 03:38:08;;;;;;;6.65;4.50;;;;;;;;;;4988653;28;20054;-80
2023/03/18 03:40:36;;;;;;;7.75;5.05;;;;;;;;;;4987164;28;20053;-80
2023/03/18 03:43:03;;;;;;;6.20;4.40;;;;;;;;;;4987806;28;20061;-80
2023/03/18 03:45:31;;;;;;;6.20;4.57;;;;;;;;;;4986570;28;20907;-80
2023/03/18 03:48:00;;;;;;;7.00;5.25;;;;;;;;;;4964713;28;20046;-79
2023/03/18 03:50:27;;;;;;;10.40;5.43;;;;;;;;;;4968508;28;20710;-80
2023/03/18 03:52:55;;;;;;;8.15;5.43;;;;;;;;;;4985876;28;20502;-80
2023/03/18 03:55:23;;;;;;;9.52;5.20;;;;;;;;;;4967159;28;20050;-80
2023/03/18 03:57:53;;;;;;;12.38;4.85;;;;;;;;;;4968643;28;20500;-80
2023/03/18 04:00:21;;;;;;;10.75;5.88;;;;;;;;;;4967913;28;20046;-80
2023/03/18 04:02:50;;;;;;;10.20;5.35;;;;;;;;;;4969209;28;20067;-80
2023/03/18 04:05:21;;;;;;;8.80;4.45;;;;;;;;;;4968463;28;20511;-80
2023/03/18 04:07:50;;;;;;;5.82;4.07;;;;;;;;;;4968993;28;20050;-80
2023/03/18 04:10:20;;;;;;;6.68;4.22;;;;;;;;;;4968587;28;20057;-80
2023/03/18 04:12:48;;;;;;;9.40;5.00;;;;;;;;;;4965328;28;20054;-80
2023/03/18 04:15:17;;;;;;;6.15;4.32;;;;;;;;;;4966618;28;20046;-80
2023/03/18 04:17:46;;;;;;;9.05;4.72;;;;;;;;;;4961913;28;20052;-80
2023/03/18 04:20:16;;;;;;;24.27;21.98;;;;;;;;;;4968566;28;20043;-80
2023/03/18 04:22:44;;;;;;;10.48;5.50;;;;;;;;;;4968469;28;20505;-80
2023/03/18 04:25:16;;;;;;;7.03;4.53;;;;;;;;;;4968032;28;20462;-80
2023/03/18 04:27:44;;;;;;;7.20;4.55;;;;;;;;;;4968792;28;20126;-79
2023/03/18 04:30:13;;;;;;;8.93;5.43;;;;;;;;;;4969649;28;20046;-80
2023/03/18 04:32:55;;;;;;;7.72;4.82;;;;;;;;;;4964981;28;20057;-80
2023/03/18 04:35:23;;;;;;;7.82;4.75;;;;;;;;;;4966909;28;20046;-80
2023/03/18 04:37:51;;;;;;;9.13;5.20;;;;;;;;;;4983635;28;20051;-80
2023/03/18 04:40:19;;;;;;;9.90;5.68;;;;;;;;;;4973077;28;20076;-80
2023/03/18 04:42:46;;;;;;;9.40;5.00;;;;;;;;;;4993050;28;20038;-80
2023/03/18 04:45:17;;;;;;;7.60;5.28;;;;;;;;;;4977227;28;20458;-80
2023/03/18 04:47:45;;;;;;;8.55;5.43;;;;;;;;;;4989426;28;20038;-80
2023/03/18 04:50:13;;;;;;;7.80;5.60;;;;;;;;;;4974089;28;20054;-80
2023/03/18 04:52:42;;;;;;;6.90;4.50;;;;;;;;;;4968633;28;20054;-80
2023/03/18 04:55:14;;;;;;;8.32;5.38;;;;;;;;;;5095971;23;20059;-77
2023/03/18 04:57:42;;;;;;;8.40;5.05;;;;;;;;;;4982108;28;20046;-77
2023/03/18 05:00:16;;;;;;;7.38;4.30;;;;;;;;;;4984103;28;20285;-77
2023/03/18 05:02:46;;;;;;;5.25;4.63;;;;;;;;;;4983015;28;20074;-81
2023/03/18 05:05:13;;;;;;;9.90;5.68;;;;;;;;;;4977318;28;20093;-78
2023/03/18 05:07:45;;;;;;;6.38;4.63;;;;;;;;;;4975258;28;20587;-78
2023/03/18 05:10:15;;;;;;;4.80;4.40;;;;;;;;;;4968341;28;20058;-80
2023/03/18 05:12:43;;;;;;;5.95;5.25;;;;;;;;;;5015439;28;20578;-77
2023/03/18 05:15:13;;;;;;;7.25;5.75;;;;;;;;;;5001015;28;20090;-79
2023/03/18 05:17:46;;;;;;;8.73;5.13;;;;;;;;;;4961793;28;20928;-76
2023/03/18 05:20:14;;;;;;;6.07;4.20;;;;;;;;;;4995193;28;20042;-77
2023/03/18 05:22:44;;;;;;;8.88;4.60;;;;;;;;;;4977708;28;20524;-77
2023/03/18 05:25:22;;;;;;;6.55;5.07;;;;;;;;;;4970552;28;20053;-77
2023/03/18 05:27:49;;;;;;;6.65;4.45;;;;;;;;;;4988774;28;20058;-78
2023/03/18 05:30:27;;;;;;;7.85;4.30;;;;;;;;;;4988503;28;20050;-77
2023/03/18 05:32:54;;;;;;;6.78;4.38;;;;;;;;;;4983429;28;20572;-77
2023/03/18 05:35:35;;;;;;;7.83;4.30;;;;;;;;;;4973955;28;20078;-77
2023/03/18 05:38:03;;;;;;;9.00;6.00;;;;;;;;;;4971371;28;20038;-78
2023/03/18 05:40:31;;;;;;;11.43;6.57;;;;;;;;;;4990582;28;20050;-77
2023/03/18 05:43:05;;;;;;;9.25;5.82;;;;;;;;;;4962568;28;20054;-80
2023/03/18 05:45:38;;;;;;;12.65;6.07;;;;;;;;;;4960421;28;20102;-78
2023/03/18 05:48:10;;;;;;;7.95;5.45;;;;;;;;;;4971180;28;20074;-77
2023/03/18 05:50:46;;;;;;;8.05;5.20;;;;;;;;;;4996482;28;20042;-80
2023/03/18 05:53:18;;;;;;;7.55;5.50;;;;;;;;;;4973113;28;20043;-77
2023/03/18 05:55:48;;;;;;;7.22;4.60;;;;;;;;;;4979450;28;20054;-76
2023/03/18 05:58:17;;;;;;;6.55;4.50;;;;;;;;;;4969869;28;20108;-76
2023/03/18 06:00:47;;;;;;;7.47;4.75;;;;;;;;;;4969193;28;20046;-80
2023/03/18 06:03:15;;;;;;;5.10;4.60;;;;;;;;;;4988300;28;20046;-76
2023/03/18 06:05:43;;;;;;;5.22;4.68;;;;;;;;;;4971464;28;20062;-79
2023/03/18 06:08:11;;;;;;;9.90;5.85;;;;;;;;;;4971835;28;20064;-78
2023/03/18 06:10:39;;;;;;;6.05;4.70;;;;;;;;;;4971705;28;20050;-77
2023/03/18 06:13:06;;;;;;;7.25;4.97;;;;;;;;;;4970604;28;20050;-77
2023/03/18 06:15:34;;;;;;;8.57;6.03;;;;;;;;;;4969530;28;20644;-79
2023/03/18 06:18:01;;;;;;;10.07;6.60;;;;;;;;;;4969495;28;20042;-77
2023/03/18 06:20:29;;;;;;;6.75;5.53;;;;;;;;;;4977360;28;20053;-76
2023/03/18 06:22:56;;;;;;;6.25;5.60;;;;;;;;;;4964164;28;20133;-78
2023/03/18 06:25:26;;;;;;;16.50;14.77;;;;;;;;;;4993480;28;20034;-79
2023/03/18 06:27:53;;;;;;;5.32;4.13;;;;;;;;;;4976866;28;20042;-76
2023/03/18 06:30:25;;;;;;;6.28;5.15;;;;;;;;;;4976992;28;20132;-77
2023/03/18 06:32:52;;;;;;;8.65;4.15;;;;;;;;;;4974115;28;20519;-80
2023/03/18 06:35:26;;;;;;;5.93;4.28;;;;;;;;;;4984313;28;20053;-76
2023/03/18 06:37:54;;;;;;;7.95;4.72;;;;;;;;;;4982546;28;20068;-77
2023/03/18 06:40:23;;;;;;;8.07;4.30;;;;;;;;;;4972725;28;20424;-77
2023/03/18 06:42:51;;;;;;;6.32;4.57;;;;;;;;;;4971873;28;20066;-77
2023/03/18 06:45:33;;;;;;;4.63;4.22;;;;;;;;;;4981012;28;20037;-78
2023/03/18 06:48:05;;;;;;;4.07;3.67;;;;;;;;;;4964651;28;20055;-80
2023/03/18 06:50:35;;;;;;;4.55;3.50;;;;;;;;;;4970817;28;20050;-80
2023/03/18 06:53:04;;;;;;;7.63;4.28;;;;;;;;;;4976415;28;20152;-77
2023/03/18 06:55:33;;;;;;;4.28;3.75;;;;;;;;;;4977493;28;20050;-78
2023/03/18 06:58:04;;;;;;;6.47;4.40;;;;;;;;;;4988823;28;20049;-79
2023/03/18 07:00:44;;;;;;;6.78;4.28;;;;;;;;;;4983057;28;20042;-76
2023/03/18 07:03:17;;;;;;;6.57;4.43;;;;;;;;;;4960534;28;20420;-76
2023/03/18 07:05:44;;;;;;;4.53;4.13;;;;;;;;;;4965886;28;20129;-76
2023/03/18 07:08:14;;;;;;;7.43;5.13;;;;;;;;;;4975001;28;20515;-78
2023/03/18 07:10:41;;;;;;;5.35;4.32;;;;;;;;;;4997852;28;20076;-78
2023/03/18 07:13:14;;;;;;;5.43;4.13;;;;;;;;;;4979134;28;20430;-80
2023/03/18 07:15:42;;;;;;;6.57;4.95;;;;;;;;;;4975767;28;20042;-78
2023/03/18 07:18:10;;;;;;;5.93;4.65;;;;;;;;;;4996258;28;20042;-77
2023/03/18 07:20:39;;;;;;;6.85;4.65;;;;;;;;;;4966176;28;20047;-80
2023/03/18 07:23:06;;;;;;;5.55;4.13;;;;;;;;;;4965214;28;20466;-78
2023/03/18 07:25:35;;;;;;;4.90;4.13;;;;;;;;;;4975086;28;20459;-78
2023/03/18 07:28:04;;;;;;;5.05;4.43;;;;;;;;;;4977207;28;20077;-78
2023/03/18 07:30:32;;;;;;;5.18;4.40;;;;;;;;;;4990367;28;20035;-78
2023/03/18 07:33:01;;;;;;;5.18;4.20;;;;;;;;;;4970246;28;20043;-78
2023/03/18 07:35:28;;;;;;;5.35;4.15;;;;;;;;;;4976745;28;20086;-78
2023/03/18 07:37:56;;;;;;;10.00;4.90;;;;;;;;;;4985585;28;20048;-79
2023/03/18 07:40:23;;;;;;;6.70;4.45;;;;;;;;;;4990110;28;20078;-80
2023/03/18 07:42:51;;;;;;;6.47;5.03;;;;;;;;;;4983177;28;20047;-79
2023/03/18 07:45:19;;;;;;;8.50;4.43;;;;;;;;;;4973732;28;20046;-79
2023/03/18 07:47:46;;;;;;;8.13;4.60;;;;;;;;;;4976617;28;20053;-78
2023/03/18 07:50:13;;;;;;;9.00;4.50;;;;;;;;;;4979163;28;20109;-80
2023/03/18 07:52:41;;;;;;;6.70;4.78;;;;;;;;;;4979686;28;20357;-77
2023/03/18 07:55:09;;;;;;;4.90;3.90;;;;;;;;;;4975747;28;20050;-78
2023/03/18 07:57:37;;;;;;;6.18;4.28;;;;;;;;;;4981883;28;20050;-78
2023/03/18 08:00:05;;;;;;;5.07;4.47;;;;;;;;;;4962811;28;20062;-77
2023/03/18 08:02:39;;;;;;;6.68;5.32;;;;;;;;;;4980737;28;20038;-78
2023/03/18 08:05:07;;;;;;;6.03;3.70;;;;;;;;;;4972950;28;20118;-79
2023/03/18 08:07:35;;;;;;;4.88;4.18;;;;;;;;;;4977961;28;20428;-81
2023/03/18 08:10:03;;;;;;;7.90;4.72;;;;;;;;;;4980820;28;20077;-78
2023/03/18 08:12:30;;;;;;;6.95;4.43;;;;;;;;;;4983498;28;20581;-81
2023/03/18 08:15:17;;;;;;;7.07;4.57;;;;;;;;;;4991028;28;20046;-80
2023/03/18 08:17:45;;;;;;;6.00;4.82;;;;;;;;;;4987826;28;20466;-82
2023/03/18 08:20:13;;;;;;;8.05;4.38;;;;;;;;;;4984831;28;20476;-81
2023/03/18 08:22:40;;;;;;;5.85;4.20;;;;;;;;;;4989946;28;20076;-81
2023/03/18 08:25:08;;;;;;;11.25;4.47;;;;;;;;;;4988970;28;20476;-79
2023/03/18 08:27:37;;;;;;;7.03;4.63;;;;;;;;;;4976288;28;20184;-81
2023/03/18 08:30:08;;;;;;;9.07;4.38;;;;;;;;;;4984046;28;20054;-80
2023/03/18 08:32:36;;;;;;;4.90;4.03;;;;;;;;;;4981091;28;20054;-78
2023/03/18 08:35:04;;;;;;;6.18;4.47;;;;;;;;;;4988757;28;20062;-78
2023/03/18 08:37:31;;;;;;;7.68;4.50;;;;;;;;;;4988901;28;20050;-79
2023/03/18 08:39:59;;;;;;;5.78;4.35;;;;;;;;;;4989632;28;20519;-80
2023/03/18 08:42:26;;;;;;;5.72;4.32;;;;;;;;;;4996601;28;20582;-79
2023/03/18 08:44:54;;;;;;;4.30;3.90;;;;;;;;;;4999568;28;20042;-81
2023/03/18 08:47:23;;;;;;;4.70;4.10;;;;;;;;;;4996822;28;20046;-79
2023/03/18 08:49:51;;;;;;;7.25;4.68;;;;;;;;;;4988578;28;20125;-80
2023/03/18 08:52:18;;;;;;;5.15;4.32;;;;;;;;;;4988811;28;20046;-79
2023/03/18 08:54:46;;;;;;;6.43;4.63;;;;;;;;;;4988373;28;20580;-81
2023/03/18 08:57:14;;;;;;;6.45;5.70;;;;;;;;;;4986330;28;20062;-80
2023/03/18 08:59:42;;;;;;;13.27;9.50;;;;;;;;;;4987788;28;20093;-78
2023/03/18 09:02:18;;;;;;;17.15;13.48;;;;;;;;;;4987325;28;20513;-80
2023/03/18 09:04:47;;;;;;;12.98;4.93;;;;;;;;;;4986399;28;20316;-80
2023/03/18 09:07:14;;;;;;;7.35;5.47;;;;;;;;;;4986451;28;20088;-79
2023/03/18 09:09:45;;;;;;;10.63;5.03;;;;;;;;;;4988477;28;20045;-78
2023/03/18 09:12:13;;;;;;;11.02;5.00;;;;;;;;;;4988375;28;20046;-78
2023/03/18 09:14:42;;;;;;;8.43;5.18;;;;;;;;;;4986513;28;20548;-81
2023/03/18 09:17:09;;;;;;;7.60;5.05;;;;;;;;;;4987636;28;20057;-79
2023/03/18 09:19:37;;;;;;;7.25;6.03;;;;;;;;;;4986883;28;20496;-78
2023/03/18 09:22:05;;;;;;;8.23;5.68;;;;;;;;;;4984160;28;20543;-80
2023/03/18 09:24:32;;;;;;;7.80;5.72;;;;;;;;;;4986422;28;20141;-79
2023/03/18 09:26:59;;;;;;;6.03;5.43;;;;;;;;;;4987206;28;20043;-79
2023/03/18 09:29:27;;;;;;;7.13;5.70;;;;;;;;;;4986012;28;20064;-81
2023/03/18 09:31:55;;;;;;;8.32;5.82;;;;;;;;;;4987187;28;20046;-79
2023/03/18 09:34:23;;;;;;;7.25;5.60;;;;;;;;;;4987692;28;20054;-82
2023/03/18 09:36:57;;;;;;;6.20;5.55;;;;;;;;;;4986601;28;20104;-79
2023/03/18 09:39:24;;;;;;;10.52;6.05;;;;;;;;;;4987962;28;20134;-81
2023/03/18 09:42:01;;;;;;;6.10;5.55;;;;;;;;;;4987323;28;20776;-79
2023/03/18 09:44:30;;;;;;;7.32;5.38;;;;;;;;;;4987847;28;20105;-79
2023/03/18 09:47:17;;;;;;;8.32;6.25;;;;;;;;;;4978998;28;20053;-80
2023/03/18 09:49:58;;;;;;;7.55;5.97;;;;;;;;;;4987948;28;20072;-79
2023/03/18 09:52:29;;;;;;;8.88;6.35;;;;;;;;;;4987591;28;20062;-81
2023/03/18 09:55:08;;;;;;;7.90;7.07;;;;;;;;;;4987776;28;20042;-81
2023/03/18 09:57:42;;;;;;;9.50;6.90;;;;;;;;;;4986715;28;20165;-81
2023/03/18 10:00:19;;;;;;;9.45;7.45;;;;;;;;;;4987333;28;20105;-79
2023/03/18 10:02:57;;;;;;;8.70;7.25;;;;;;;;;;4985505;28;20126;-79
2023/03/18 10:05:29;;;;;;;7.32;6.63;;;;;;;;;;4974466;28;20042;-79
2023/03/18 10:08:00;;;;;;;13.88;7.03;;;;;;;;;;4987069;28;20054;-81
2023/03/18 10:10:31;;;;;;;14.38;7.10;;;;;;;;;;4973962;28;20054;-81
2023/03/18 10:13:09;;;;;;;10.95;6.82;;;;;;;;;;4985597;28;20057;-81
2023/03/18 10:15:40;;;;;;;8.30;7.00;;;;;;;;;;4987813;28;20039;-80
2023/03/18 10:18:26;;;;;;;9.32;6.90;;;;;;;;;;4979279;28;20051;-79
2023/03/18 10:21:12;;;;;;;8.02;7.25;;;;;;;;;;4991282;28;20692;-79
2023/03/18 10:23:48;;;;;;;9.32;7.30;;;;;;;;;;4984470;28;20050;-79
2023/03/18 10:26:19;;;;;;;9.18;7.57;;;;;;;;;;4985835;28;20053;-81
2023/03/18 10:29:04;;;;;;;8.82;7.60;;;;;;;;;;4986505;28;20035;-79
2023/03/18 10:31:42;;;;;;;13.18;7.75;;;;;;;;;;4987195;28;20038;-81
2023/03/18 10:34:18;;;;;;;13.65;7.68;;;;;;;;;;4988536;28;20066;-80
2023/03/18 10:36:47;;;;;;;9.82;7.80;;;;;;;;;;4984795;28;20068;-80
2023/03/18 10:39:15;;;;;;;10.75;8.02;;;;;;;;;;4987497;28;20123;-81
2023/03/18 10:41:43;;;;;;;9.40;7.65;;;;;;;;;;4982633;28;20039;-80
2023/03/18 10:44:32;;;;;;;9.48;8.15;;;;;;;;;;4989607;28;20046;-79
2023/03/18 10:47:12;;;;;;;9.90;8.60;;;;;;;;;;4986559;28;20349;-78
2023/03/18 10:49:41;;;;;;;14.13;9.82;;;;;;;;;;4987402;28;20061;-79
2023/03/18 10:52:33;;;;;;;12.82;9.45;;;;;;;;;;4989070;28;20046;-81
2023/03/18 10:55:13;;;;;;;12.20;9.05;;;;;;;;;;5007159;23;20055;-83
2023/03/18 10:57:41;;;;;;;11.95;9.23;;;;;;;;;;4986643;28;20065;-84
2023/03/18 11:00:31;;;;;;;13.88;9.00;;;;;;;;;;4982374;28;20050;-85
2023/03/18 11:03:04;;;;;;;11.77;9.13;;;;;;;;;;4998500;28;20522;-83
2023/03/18 11:05:35;;;;;;;11.30;8.55;;;;;;;;;;4982788;28;20050;-84
2023/03/18 11:08:17;;;;;;;12.37;7.97;;;;;;;;;;4974654;28;20054;-84
2023/03/18 11:10:54;;;;;;;13.85;9.02;;;;;;;;;;5001046;28;20312;-86
2023/03/18 11:13:26;;;;;;;8.93;8.02;;;;;;;;;;4971519;28;20054;-83
2023/03/18 11:15:55;;;;;;;10.63;8.65;;;;;;;;;;4981248;28;20121;-85
2023/03/18 11:18:26;;;;;;;12.25;7.93;;;;;;;;;;4984024;28;20054;-84
2023/03/18 11:21:11;;;;;;;13.23;8.68;;;;;;;;;;4976316;28;20038;-83
2023/03/18 11:23:55;;;;;;;13.27;8.48;;;;;;;;;;4975192;28;20038;-84
2023/03/18 11:26:27;;;;;;;13.00;8.85;;;;;;;;;;4979207;28;20045;-84
2023/03/18 11:28:57;;;;;;;15.20;9.43;;;;;;;;;;4982966;28;20046;-84
2023/03/18 11:31:24;;;;;;;10.65;8.63;;;;;;;;;;4971132;28;20066;-84
2023/03/18 11:33:57;;;;;;;9.35;7.95;;;;;;;;;;4987014;28;20749;-83
2023/03/18 11:36:31;;;;;;;10.68;7.97;;;;;;;;;;4958603;28;20078;-83
2023/03/18 11:39:06;;;;;;;19.27;8.98;;;;;;;;;;4977968;28;20042;-85
2023/03/18 11:41:39;;;;;;;12.35;8.88;;;;;;;;;;4964688;28;20559;-83
2023/03/18 11:44:07;;;;;;;10.65;8.15;;;;;;;;;;4977788;28;20050;-82
2023/03/18 11:46:45;;;;;;;12.18;9.25;;;;;;;;;;4976628;28;20078;-83
2023/03/18 11:49:17;;;;;;;11.63;8.13;;;;;;;;;;4980208;28;20047;-84
2023/03/18 11:52:03;;;;;;;12.30;8.68;;;;;;;;;;4983257;28;20160;-84
2023/03/18 11:54:50;;;;;;;11.90;8.32;;;;;;;;;;4989154;28;20046;-85
2023/03/18 11:57:21;;;;;;;10.40;8.57;;;;;;;;;;4988146;28;20051;-83
2023/03/18 12:00:16;;;;;;;10.17;8.57;;;;;;;;;;4987484;28;20043;-84
2023/03/18 12:02:59;;;;;;;10.57;7.72;;;;;;;;;;4949923;28;20060;-82
2023/03/18 12:05:34;;;;;;;12.68;8.65;;;;;;;;;;4983414;28;20050;-82
2023/03/18 12:08:33;;;;;;;13.63;8.55;;;;;;;;;;4964136;28;21269;-85
2023/03/18 12:11:13;;;;;;;13.00;8.98;;;;;;;;;;4987117;28;20054;-85
2023/03/18 12:14:01;;;;;;;11.05;8.40;;;;;;;;;;4983891;28;20047;-83
2023/03/18 12:16:43;;;;;;;13.55;8.23;;;;;;;;;;4986771;28;20049;-83
2023/03/18 12:19:37;;;;;;;12.23;8.63;;;;;;;;;;4980230;28;20070;-83
2023/03/18 12:22:23;;;;;;;13.50;8.73;;;;;;;;;;4969491;28;20309;-85
2023/03/18 12:25:09;;;;;;;11.60;8.48;;;;;;;;;;4983219;28;20051;-84
2023/03/18 12:27:43;;;;;;;10.73;8.38;;;;;;;;;;4979523;28;20042;-84
2023/03/18 12:30:28;;;;;;;11.00;7.85;;;;;;;;;;4981296;28;20058;-81
2023/03/18 12:33:03;;;;;;;13.52;8.57;;;;;;;;;;4986744;28;20035;-84
2023/03/18 12:35:41;;;;;;;15.13;8.77;;;;;;;;;;5000524;28;20113;-86
2023/03/18 12:38:13;;;;;;;11.00;8.15;;;;;;;;;;4987628;28;20078;-84
2023/03/18 12:40:45;;;;;;;14.27;8.95;;;;;;;;;;4991688;28;20049;-83
2023/03/18 12:43:38;;;;;;;12.88;9.07;;;;;;;;;;4991056;28;20046;-84
2023/03/18 12:46:12;;;;;;;12.32;8.93;;;;;;;;;;4967931;28;20135;-84
2023/03/18 12:48:50;;;;;;;10.27;8.52;;;;;;;;;;4970169;28;20042;-86
2023/03/18 12:51:21;;;;;;;10.98;8.57;;;;;;;;;;4969276;28;20416;-83
2023/03/18 12:53:54;;;;;;;11.90;8.02;;;;;;;;;;4974023;28;20043;-86
2023/03/18 12:56:31;;;;;;;13.38;8.95;;;;;;;;;;4982739;28;20046;-84
2023/03/18 12:59:05;;;;;;;12.73;7.93;;;;;;;;;;4973597;28;20043;-81
2023/03/18 13:01:39;;;;;;;13.20;8.13;;;;;;;;;;4976141;28;20570;-83
2023/03/18 13:04:12;;;;;;;15.35;8.25;;;;;;;;;;4972702;28;20054;-84
2023/03/18 13:06:41;;;;;;;11.07;7.95;;;;;;;;;;4983688;28;20062;-83
2023/03/18 13:09:21;;;;;;;12.13;7.95;;;;;;;;;;4980442;28;20106;-82
2023/03/18 13:12:08;;;;;;;13.20;8.07;;;;;;;;;;4973821;28;20052;-82
2023/03/18 13:14:58;;;;;;;10.48;8.18;;;;;;;;;;4981353;28;20042;-83
2023/03/18 13:17:26;;;;;;;11.77;8.50;;;;;;;;;;4945654;28;20680;-84
2023/03/18 13:19:56;;;;;;;10.82;7.95;;;;;;;;;;4984412;28;20041;-82
2023/03/18 13:22:24;;;;;;;13.20;7.95;;;;;;;;;;4987083;28;20567;-84
2023/03/18 13:25:00;;;;;;;12.20;8.50;;;;;;;;;;4983400;28;20097;-84
2023/03/18 13:27:46;;;;;;;11.55;8.55;;;;;;;;;;4976376;28;20050;-84
2023/03/18 13:30:36;;;;;;;13.55;8.20;;;;;;;;;;4985862;28;20060;-84
2023/03/18 13:33:06;;;;;;;13.60;7.75;;;;;;;;;;4991407;28;20051;-83
2023/03/18 13:35:37;;;;;;;12.88;8.93;;;;;;;;;;4983152;28;20448;-83
2023/03/18 13:38:19;;;;;;;12.63;8.00;;;;;;;;;;4976587;28;20290;-83
2023/03/18 13:41:02;;;;;;;10.80;8.40;;;;;;;;;;4966076;28;20507;-82
2023/03/18 13:43:34;;;;;;;13.52;8.48;;;;;;;;;;4978870;28;20081;-84
2023/03/18 13:46:04;;;;;;;;;;;;;;;;;;4982214;28;20042;-83
2023/03/18 13:48:35;;;;;;;13.75;8.20;;;;;;;;;;4980270;28;20022;-84
2023/03/18 13:51:35;;;;;;;12.73;9.23;;;;;;;;;;4981940;28;20154;-83
2023/03/18 13:54:04;;;;;;;10.40;7.78;;;;;;;;;;4988251;28;20054;-84
2023/03/18 13:56:43;;;;;;;9.88;7.60;;;;;;;;;;4996197;28;20078;-83
2023/03/18 13:59:31;;;;;;;12.00;7.72;;;;;;;;;;4997966;28;20047;-84
2023/03/18 14:02:21;;;;;;;11.88;8.50;;;;;;;;;;4966015;28;20069;-82
2023/03/18 14:04:57;;;;;;;9.55;7.55;;;;;;;;;;4990196;28;20038;-86
2023/03/18 14:07:27;;;;;;;13.32;7.97;;;;;;;;;;4971930;28;20054;-85
2023/03/18 14:10:03;;;;;;;13.02;8.05;;;;;;;;;;4984526;28;20051;-83
2023/03/18 14:12:48;;;;;;;12.40;7.57;;;;;;;;;;4982014;28;20050;-83
2023/03/18 14:15:37;;;;;;;10.95;7.43;;;;;;;;;;4985291;28;20047;-85
2023/03/18 14:18:17;;;;;;;12.90;7.30;;;;;;;;;;4979835;28;20583;-85
2023/03/18 14:20:45;;;;;;;13.88;7.90;;;;;;;;;;4982147;28;20058;-83
2023/03/18 14:23:32;;;;;;;15.13;8.65;;;;;;;;;;4979654;28;20496;-84
2023/03/18 14:26:00;;;;;;;8.25;6.53;;;;;;;;;;4978516;28;20122;-84
2023/03/18 14:28:54;;;;;;;8.13;6.18;;;;;;;;;;4984575;28;20057;-85
2023/03/18 14:31:31;;;;;;;11.10;6.40;;;;;;;;;;4945122;28;20038;-83
2023/03/18 14:34:04;;;;;;;9.57;5.68;;;;;;;;;;4981135;28;20125;-83
2023/03/18 14:36:53;;;;;;;8.57;6.18;;;;;;;;;;4982962;28;20053;-83
2023/03/18 14:39:36;;;;;;;9.68;5.28;;;;;;;;;;4988924;28;20071;-82
2023/03/18 14:42:09;;;;;;;8.38;5.72;;;;;;;;;;4967512;28;20062;-83
2023/03/18 14:44:48;;;;;;;8.45;5.90;;;;;;;;;;4970274;28;20040;-81
2023/03/18 14:47:26;;;;;;;9.18;5.90;;;;;;;;;;4981716;28;20048;-84
2023/03/18 14:50:36;;;;;;;9.82;5.97;;;;;;;;;;4978739;28;20082;-84
2023/03/18 14:53:09;;;;;;;7.32;5.25;;;;;;;;;;4974944;28;20073;-83
2023/03/18 14:55:38;;;;;;;6.90;5.10;;;;;;;;;;4979903;28;20054;-84
2023/03/18 14:58:16;;;;;;;10.37;5.67;;;;;;;;;;4979145;28;20062;-83
2023/03/18 15:00:45;;;;;;;8.23;5.20;;;;;;;;;;4979776;28;20136;-86
2023/03/18 15:03:21;;;;;;;6.93;5.32;;;;;;;;;;4978303;28;20043;-83
2023/03/18 15:05:49;;;;;;;8.70;6.43;;;;;;;;;;4981855;28;20049;-84
2023/03/18 15:08:18;;;;;;;9.13;5.78;;;;;;;;;;4977882;28;20460;-83